sensor_id;sensor_type;location;lat;lon;timestamp;temperature;humidity
10089;DHT22;51898;49.864;8.550;2023-03-01T00:00:19;-0.80;72.30
10089;DHT22;51898;49.864;8.550;2023-03-01T00:03:21;-0.80;72.40
10089;DHT22;51898;49.864;8.550;2023-03-01T00:06:24;-0.80;72.50
10089;DHT22;51898;49.864;8.550;2023-03-01T00:09:26;-0.80;72.50
10089;DHT22;51898;49.864;8.550;2023-03-01T00:12:28;-0.80;72.40
10089;DHT22;51898;49.864;8.550;2023-03-01T00:15:30;-0.80;72.50
10089;DHT22;51898;49.864;8.550;2023-03-01T00:18:32;-0.80;72.60
10089;DHT22;51898;49.864;8.550;2023-03-01T00:21:34;-0.80;72.50
10089;DHT22;51898;49.864;8.550;2023-03-01T00:24:36;-0.80;72.60
10089;DHT22;51898;49.864;8.550;2023-03-01T00:27:38;-0.80;72.70
10089;DHT22;51898;49.864;8.550;2023-03-01T00:30:40;-0.80;72.80
10089;DHT22;51898;49.864;8.550;2023-03-01T00:33:42;-0.90;72.80
10089;DHT22;51898;49.864;8.550;2023-03-01T00:36:44;-0.90;73.10
10089;DHT22;51898;49.864;8.550;2023-03-01T00:39:47;-0.90;73.00
10089;DHT22;51898;49.864;8.550;2023-03-01T00:42:48;-0.90;73.20
10089;DHT22;51898;49.864;8.550;2023-03-01T00:45:50;-1.00;73.30
10089;DHT22;51898;49.864;8.550;2023-03-01T00:48:52;-1.00;73.30
10089;DHT22;51898;49.864;8.550;2023-03-01T00:51:54;-1.00;73.50
10089;DHT22;51898;49.864;8.550;2023-03-01T00:54:55;-1.00;73.60
10089;DHT22;51898;49.864;8.550;2023-03-01T00:57:58;-1.00;73.50
10089;DHT22;51898;49.864;8.550;2023-03-01T01:01:00;-1.00;73.60
10089;DHT22;51898;49.864;8.550;2023-03-01T01:04:05;-1.00;73.50
10089;DHT22;51898;49.864;8.550;2023-03-01T01:07:07;-1.00;73.70
10089;DHT22;51898;49.864;8.550;2023-03-01T01:10:09;-1.00;73.60
10089;DHT22;51898;49.864;8.550;2023-03-01T01:13:18;-1.00;73.50
10089;DHT22;51898;49.864;8.550;2023-03-01T01:16:22;-1.00;73.60
10089;DHT22;51898;49.864;8.550;2023-03-01T01:19:25;-1.00;73.60
10089;DHT22;51898;49.864;8.550;2023-03-01T01:22:27;-1.00;73.50
10089;DHT22;51898;49.864;8.550;2023-03-01T01:25:28;-1.00;73.70
10089;DHT22;51898;49.864;8.550;2023-03-01T01:28:30;-1.10;73.70
10089;DHT22;51898;49.864;8.550;2023-03-01T01:31:33;-1.10;73.90
10089;DHT22;51898;49.864;8.550;2023-03-01T01:34:36;-1.10;74.00
10089;DHT22;51898;49.864;8.550;2023-03-01T01:37:37;-1.10;74.10
10089;DHT22;51898;49.864;8.550;2023-03-01T01:40:45;-1.20;74.40
10089;DHT22;51898;49.864;8.550;2023-03-01T01:44:08;-1.20;74.70
10089;DHT22;51898;49.864;8.550;2023-03-01T01:47:20;-1.30;75.00
10089;DHT22;51898;49.864;8.550;2023-03-01T01:50:23;-1.30;75.10
10089;DHT22;51898;49.864;8.550;2023-03-01T01:53:26;-1.20;75.30
10089;DHT22;51898;49.864;8.550;2023-03-01T01:56:29;-1.20;75.30
10089;DHT22;51898;49.864;8.550;2023-03-01T01:59:32;-1.20;75.20
10089;DHT22;51898;49.864;8.550;2023-03-01T02:02:34;-1.20;75.10
10089;DHT22;51898;49.864;8.550;2023-03-01T02:06:03;-1.20;75.20
10089;DHT22;51898;49.864;8.550;2023-03-01T02:09:10;-1.10;75.30
10089;DHT22;51898;49.864;8.550;2023-03-01T02:12:14;-1.20;75.40
10089;DHT22;51898;49.864;8.550;2023-03-01T02:15:16;-1.20;75.70
10089;DHT22;51898;49.864;8.550;2023-03-01T02:18:20;-1.20;75.90
10089;DHT22;51898;49.864;8.550;2023-03-01T02:21:52;-1.20;75.80
10089;DHT22;51898;49.864;8.550;2023-03-01T02:28:25;-1.20;75.70
10089;DHT22;51898;49.864;8.550;2023-03-01T02:31:26;-1.20;75.70
10089;DHT22;51898;49.864;8.550;2023-03-01T02:34:43;-1.10;75.70
10089;DHT22;51898;49.864;8.550;2023-03-01T02:37:45;-1.10;75.80
10089;DHT22;51898;49.864;8.550;2023-03-01T02:40:50;-1.10;75.70
10089;DHT22;51898;49.864;8.550;2023-03-01T02:43:52;-1.10;75.80
10089;DHT22;51898;49.864;8.550;2023-03-01T02:46:56;-1.10;75.80
10089;DHT22;51898;49.864;8.550;2023-03-01T02:49:58;-1.10;75.90
10089;DHT22;51898;49.864;8.550;2023-03-01T02:53:19;-1.10;75.90
10089;DHT22;51898;49.864;8.550;2023-03-01T02:56:23;-1.20;75.90
10089;DHT22;51898;49.864;8.550;2023-03-01T02:59:30;-1.20;76.00
10089;DHT22;51898;49.864;8.550;2023-03-01T03:02:33;-1.20;76.20
10089;DHT22;51898;49.864;8.550;2023-03-01T03:05:38;-1.20;76.10
10089;DHT22;51898;49.864;8.550;2023-03-01T03:08:40;-1.10;76.10
10089;DHT22;51898;49.864;8.550;2023-03-01T03:11:42;-1.20;76.10
10089;DHT22;51898;49.864;8.550;2023-03-01T03:14:44;-1.20;76.20
10089;DHT22;51898;49.864;8.550;2023-03-01T03:17:45;-1.20;76.20
10089;DHT22;51898;49.864;8.550;2023-03-01T03:20:47;-1.20;76.30
10089;DHT22;51898;49.864;8.550;2023-03-01T03:23:53;-1.20;76.40
10089;DHT22;51898;49.864;8.550;2023-03-01T03:26:55;-1.20;76.50
10089;DHT22;51898;49.864;8.550;2023-03-01T03:29:57;-1.20;76.50
10089;DHT22;51898;49.864;8.550;2023-03-01T03:32:59;-1.20;76.40
10089;DHT22;51898;49.864;8.550;2023-03-01T03:36:01;-1.20;76.30
10089;DHT22;51898;49.864;8.550;2023-03-01T03:39:02;-1.20;76.40
10089;DHT22;51898;49.864;8.550;2023-03-01T03:42:04;-1.20;76.40
10089;DHT22;51898;49.864;8.550;2023-03-01T03:45:06;-1.10;76.30
10089;DHT22;51898;49.864;8.550;2023-03-01T03:48:09;-1.10;76.20
10089;DHT22;51898;49.864;8.550;2023-03-01T03:51:13;-1.10;76.20
10089;DHT22;51898;49.864;8.550;2023-03-01T03:54:14;-1.00;76.00
10089;DHT22;51898;49.864;8.550;2023-03-01T03:57:16;-1.00;76.00
10089;DHT22;51898;49.864;8.550;2023-03-01T04:00:20;-1.00;75.80
10089;DHT22;51898;49.864;8.550;2023-03-01T04:03:24;-1.00;75.80
10089;DHT22;51898;49.864;8.550;2023-03-01T04:06:26;-1.00;75.70
10089;DHT22;51898;49.864;8.550;2023-03-01T04:09:28;-0.90;75.70
10089;DHT22;51898;49.864;8.550;2023-03-01T04:12:31;-0.90;75.60
10089;DHT22;51898;49.864;8.550;2023-03-01T04:15:35;-0.90;75.60
10089;DHT22;51898;49.864;8.550;2023-03-01T04:18:37;-1.00;75.70
10089;DHT22;51898;49.864;8.550;2023-03-01T04:21:38;-0.90;75.60
10089;DHT22;51898;49.864;8.550;2023-03-01T04:24:40;-0.90;75.50
10089;DHT22;51898;49.864;8.550;2023-03-01T04:27:42;-0.80;75.40
10089;DHT22;51898;49.864;8.550;2023-03-01T04:30:43;-0.80;75.20
10089;DHT22;51898;49.864;8.550;2023-03-01T04:33:50;-0.80;75.00
10089;DHT22;51898;49.864;8.550;2023-03-01T04:36:55;-0.80;75.10
10089;DHT22;51898;49.864;8.550;2023-03-01T04:39:57;-0.80;75.10
10089;DHT22;51898;49.864;8.550;2023-03-01T04:42:58;-0.80;75.00
10089;DHT22;51898;49.864;8.550;2023-03-01T04:46:06;-0.80;75.10
10089;DHT22;51898;49.864;8.550;2023-03-01T04:49:10;-0.80;75.00
10089;DHT22;51898;49.864;8.550;2023-03-01T04:52:12;-0.80;74.90
10089;DHT22;51898;49.864;8.550;2023-03-01T04:55:14;-0.80;74.80
10089;DHT22;51898;49.864;8.550;2023-03-01T04:58:16;-0.80;74.80
10089;DHT22;51898;49.864;8.550;2023-03-01T05:01:20;-0.80;74.90
10089;DHT22;51898;49.864;8.550;2023-03-01T05:04:22;-0.80;74.80
10089;DHT22;51898;49.864;8.550;2023-03-01T05:07:24;-0.80;74.90
10089;DHT22;51898;49.864;8.550;2023-03-01T05:10:29;-0.80;74.70
10089;DHT22;51898;49.864;8.550;2023-03-01T05:13:31;-0.80;74.80
10089;DHT22;51898;49.864;8.550;2023-03-01T05:16:33;-0.80;74.70
10089;DHT22;51898;49.864;8.550;2023-03-01T05:19:37;-0.80;74.70
10089;DHT22;51898;49.864;8.550;2023-03-01T05:22:38;-0.80;74.70
10089;DHT22;51898;49.864;8.550;2023-03-01T05:25:40;-0.80;74.90
10089;DHT22;51898;49.864;8.550;2023-03-01T05:28:42;-0.80;74.80
10089;DHT22;51898;49.864;8.550;2023-03-01T05:31:43;-0.80;74.70
10089;DHT22;51898;49.864;8.550;2023-03-01T05:34:45;-0.80;74.60
10089;DHT22;51898;49.864;8.550;2023-03-01T05:37:48;-0.80;74.70
10089;DHT22;51898;49.864;8.550;2023-03-01T05:40:50;-0.80;74.80
10089;DHT22;51898;49.864;8.550;2023-03-01T05:43:52;-0.90;74.80
10089;DHT22;51898;49.864;8.550;2023-03-01T05:46:54;-0.90;75.10
10089;DHT22;51898;49.864;8.550;2023-03-01T05:49:56;-0.90;75.00
10089;DHT22;51898;49.864;8.550;2023-03-01T05:53:06;-0.90;75.00
10089;DHT22;51898;49.864;8.550;2023-03-01T05:56:09;-0.90;74.90
10089;DHT22;51898;49.864;8.550;2023-03-01T05:59:11;-0.80;75.00
10089;DHT22;51898;49.864;8.550;2023-03-01T06:02:12;-0.80;74.90
10089;DHT22;51898;49.864;8.550;2023-03-01T06:05:15;-0.80;74.90
10089;DHT22;51898;49.864;8.550;2023-03-01T06:08:16;-0.80;75.00
10089;DHT22;51898;49.864;8.550;2023-03-01T06:11:18;-0.80;75.00
10089;DHT22;51898;49.864;8.550;2023-03-01T06:14:20;-0.80;75.10
10089;DHT22;51898;49.864;8.550;2023-03-01T06:17:22;-0.80;75.10
10089;DHT22;51898;49.864;8.550;2023-03-01T06:20:25;-0.90;75.30
10089;DHT22;51898;49.864;8.550;2023-03-01T06:23:27;-0.90;75.30
10089;DHT22;51898;49.864;8.550;2023-03-01T06:26:29;-0.90;75.30
10089;DHT22;51898;49.864;8.550;2023-03-01T06:29:31;-0.80;75.10
10089;DHT22;51898;49.864;8.550;2023-03-01T06:32:32;-0.80;75.20
10089;DHT22;51898;49.864;8.550;2023-03-01T06:35:34;-0.80;75.20
10089;DHT22;51898;49.864;8.550;2023-03-01T06:38:36;-0.80;75.20
10089;DHT22;51898;49.864;8.550;2023-03-01T06:41:38;-0.80;75.20
10089;DHT22;51898;49.864;8.550;2023-03-01T06:44:39;-0.80;75.30
10089;DHT22;51898;49.864;8.550;2023-03-01T06:47:41;-0.80;75.20
10089;DHT22;51898;49.864;8.550;2023-03-01T06:50:43;-0.70;75.20
10089;DHT22;51898;49.864;8.550;2023-03-01T06:53:46;-0.60;75.10
10089;DHT22;51898;49.864;8.550;2023-03-01T06:56:48;-0.60;74.80
10089;DHT22;51898;49.864;8.550;2023-03-01T06:59:50;-0.60;74.40
10089;DHT22;51898;49.864;8.550;2023-03-01T07:02:53;-0.50;74.40
10089;DHT22;51898;49.864;8.550;2023-03-01T07:05:54;-0.50;74.50
10089;DHT22;51898;49.864;8.550;2023-03-01T07:08:56;-0.40;74.00
10089;DHT22;51898;49.864;8.550;2023-03-01T07:11:58;-0.40;73.90
10089;DHT22;51898;49.864;8.550;2023-03-01T07:15:00;-0.40;73.90
10089;DHT22;51898;49.864;8.550;2023-03-01T07:18:01;-0.30;73.60
10089;DHT22;51898;49.864;8.550;2023-03-01T07:21:05;-0.30;73.60
10089;DHT22;51898;49.864;8.550;2023-03-01T07:24:08;-0.30;73.40
10089;DHT22;51898;49.864;8.550;2023-03-01T07:27:10;-0.20;73.50
10089;DHT22;51898;49.864;8.550;2023-03-01T07:30:12;-0.20;73.20
10089;DHT22;51898;49.864;8.550;2023-03-01T07:33:14;-0.10;73.10
10089;DHT22;51898;49.864;8.550;2023-03-01T07:36:15;-0.10;72.80
10089;DHT22;51898;49.864;8.550;2023-03-01T07:39:17;0.00;72.80
10089;DHT22;51898;49.864;8.550;2023-03-01T07:42:20;0.00;72.40
10089;DHT22;51898;49.864;8.550;2023-03-01T07:45:22;0.10;72.00
10089;DHT22;51898;49.864;8.550;2023-03-01T07:48:23;0.20;71.30
10089;DHT22;51898;49.864;8.550;2023-03-01T07:51:25;0.20;70.90
10089;DHT22;51898;49.864;8.550;2023-03-01T07:54:27;0.40;70.70
10089;DHT22;51898;49.864;8.550;2023-03-01T07:57:28;0.60;69.80
10089;DHT22;51898;49.864;8.550;2023-03-01T08:00:30;0.60;69.50
10089;DHT22;51898;49.864;8.550;2023-03-01T08:03:32;0.80;69.10
10089;DHT22;51898;49.864;8.550;2023-03-01T08:06:35;0.90;68.40
10089;DHT22;51898;49.864;8.550;2023-03-01T08:09:37;1.00;67.20
10089;DHT22;51898;49.864;8.550;2023-03-01T08:12:39;1.10;67.20
10089;DHT22;51898;49.864;8.550;2023-03-01T08:15:40;1.20;67.20
10089;DHT22;51898;49.864;8.550;2023-03-01T08:18:43;1.30;66.30
10089;DHT22;51898;49.864;8.550;2023-03-01T08:21:44;1.40;66.30
10089;DHT22;51898;49.864;8.550;2023-03-01T08:24:46;1.50;65.60
10089;DHT22;51898;49.864;8.550;2023-03-01T08:27:48;1.60;64.90
10089;DHT22;51898;49.864;8.550;2023-03-01T08:30:50;1.70;64.20
10089;DHT22;51898;49.864;8.550;2023-03-01T08:33:54;1.80;64.00
10089;DHT22;51898;49.864;8.550;2023-03-01T08:36:58;1.80;63.50
10089;DHT22;51898;49.864;8.550;2023-03-01T08:40:00;1.90;63.20
10089;DHT22;51898;49.864;8.550;2023-03-01T08:43:02;2.00;63.00
10089;DHT22;51898;49.864;8.550;2023-03-01T08:46:04;2.10;62.50
10089;DHT22;51898;49.864;8.550;2023-03-01T08:49:12;2.10;62.20
10089;DHT22;51898;49.864;8.550;2023-03-01T08:52:14;2.20;61.90
10089;DHT22;51898;49.864;8.550;2023-03-01T08:55:16;2.20;61.60
10089;DHT22;51898;49.864;8.550;2023-03-01T08:58:18;2.30;60.90
10089;DHT22;51898;49.864;8.550;2023-03-01T09:01:20;2.40;60.60
10089;DHT22;51898;49.864;8.550;2023-03-01T09:04:22;2.40;60.40
10089;DHT22;51898;49.864;8.550;2023-03-01T09:07:24;2.50;60.70
10089;DHT22;51898;49.864;8.550;2023-03-01T09:10:29;2.50;60.00
10089;DHT22;51898;49.864;8.550;2023-03-01T09:13:31;2.50;60.20
10089;DHT22;51898;49.864;8.550;2023-03-01T09:16:33;2.60;59.70
10089;DHT22;51898;49.864;8.550;2023-03-01T09:19:37;2.70;59.70
10089;DHT22;51898;49.864;8.550;2023-03-01T09:22:39;2.80;59.50
10089;DHT22;51898;49.864;8.550;2023-03-01T09:25:40;2.90;59.20
10089;DHT22;51898;49.864;8.550;2023-03-01T09:28:42;2.90;59.00
10089;DHT22;51898;49.864;8.550;2023-03-01T09:31:45;3.00;59.40
10089;DHT22;51898;49.864;8.550;2023-03-01T09:34:47;3.20;58.60
10089;DHT22;51898;49.864;8.550;2023-03-01T09:38:09;3.30;58.40
10089;DHT22;51898;49.864;8.550;2023-03-01T09:44:58;3.40;57.70
10089;DHT22;51898;49.864;8.550;2023-03-01T09:48:01;3.60;57.10
10089;DHT22;51898;49.864;8.550;2023-03-01T09:51:08;3.70;56.90
10089;DHT22;51898;49.864;8.550;2023-03-01T09:54:10;3.90;56.60
10089;DHT22;51898;49.864;8.550;2023-03-01T09:57:35;4.00;56.10
10089;DHT22;51898;49.864;8.550;2023-03-01T10:00:44;4.00;55.80
10089;DHT22;51898;49.864;8.550;2023-03-01T10:10:38;4.10;55.30
10089;DHT22;51898;49.864;8.550;2023-03-01T10:13:52;4.20;55.40
10089;DHT22;51898;49.864;8.550;2023-03-01T10:17:08;4.30;55.20
10089;DHT22;51898;49.864;8.550;2023-03-01T10:20:19;4.30;55.20
10089;DHT22;51898;49.864;8.550;2023-03-01T10:23:26;4.40;55.00
10089;DHT22;51898;49.864;8.550;2023-03-01T10:26:50;4.60;54.60
10089;DHT22;51898;49.864;8.550;2023-03-01T10:30:16;4.80;53.90
10089;DHT22;51898;49.864;8.550;2023-03-01T10:33:26;4.90;53.60
10089;DHT22;51898;49.864;8.550;2023-03-01T10:36:32;5.00;53.30
10089;DHT22;51898;49.864;8.550;2023-03-01T10:39:34;5.00;52.90
10089;DHT22;51898;49.864;8.550;2023-03-01T10:42:40;5.00;53.60
10089;DHT22;51898;49.864;8.550;2023-03-01T10:45:48;5.10;53.40
10089;DHT22;51898;49.864;8.550;2023-03-01T10:52:22;5.30;53.40
10089;DHT22;51898;49.864;8.550;2023-03-01T10:58:30;5.40;52.60
10089;DHT22;51898;49.864;8.550;2023-03-01T11:01:34;5.40;52.50
10089;DHT22;51898;49.864;8.550;2023-03-01T11:04:37;5.60;52.60
10089;DHT22;51898;49.864;8.550;2023-03-01T11:07:48;5.60;51.80
10089;DHT22;51898;49.864;8.550;2023-03-01T11:10:50;5.70;51.70
10089;DHT22;51898;49.864;8.550;2023-03-01T11:14:32;5.90;51.30
10089;DHT22;51898;49.864;8.550;2023-03-01T11:17:34;5.90;51.40
10089;DHT22;51898;49.864;8.550;2023-03-01T11:20:55;6.00;50.20
10089;DHT22;51898;49.864;8.550;2023-03-01T11:24:00;6.10;49.90
10089;DHT22;51898;49.864;8.550;2023-03-01T11:27:04;6.10;49.90
10089;DHT22;51898;49.864;8.550;2023-03-01T11:30:24;6.00;50.50
10089;DHT22;51898;49.864;8.550;2023-03-01T11:36:53;6.20;49.90
10089;DHT22;51898;49.864;8.550;2023-03-01T11:40:11;6.40;49.40
10089;DHT22;51898;49.864;8.550;2023-03-01T11:46:51;6.40;48.90
10089;DHT22;51898;49.864;8.550;2023-03-01T11:50:05;6.40;48.60
10089;DHT22;51898;49.864;8.550;2023-03-01T11:56:40;6.60;48.70
10089;DHT22;51898;49.864;8.550;2023-03-01T11:59:58;6.70;47.60
10089;DHT22;51898;49.864;8.550;2023-03-01T12:03:25;6.80;46.80
10089;DHT22;51898;49.864;8.550;2023-03-01T12:10:27;7.10;46.50
10089;DHT22;51898;49.864;8.550;2023-03-01T12:17:26;7.40;45.80
10089;DHT22;51898;49.864;8.550;2023-03-01T12:34:30;7.60;43.60
10089;DHT22;51898;49.864;8.550;2023-03-01T12:38:06;7.70;44.40
10089;DHT22;51898;49.864;8.550;2023-03-01T12:48:01;7.70;43.00
10089;DHT22;51898;49.864;8.550;2023-03-01T12:51:10;7.70;42.80
10089;DHT22;51898;49.864;8.550;2023-03-01T12:54:30;8.00;42.60
10089;DHT22;51898;49.864;8.550;2023-03-01T12:57:46;8.10;41.90
10089;DHT22;51898;49.864;8.550;2023-03-01T13:04:20;8.40;41.10
10089;DHT22;51898;49.864;8.550;2023-03-01T13:10:52;8.30;40.90
10089;DHT22;51898;49.864;8.550;2023-03-01T13:14:35;8.30;40.20
10089;DHT22;51898;49.864;8.550;2023-03-01T13:17:44;8.30;40.90
10089;DHT22;51898;49.864;8.550;2023-03-01T13:20:51;8.50;41.30
10089;DHT22;51898;49.864;8.550;2023-03-01T13:23:53;8.60;40.70
10089;DHT22;51898;49.864;8.550;2023-03-01T13:27:22;8.60;40.90
10089;DHT22;51898;49.864;8.550;2023-03-01T13:33:43;8.20;41.40
10089;DHT22;51898;49.864;8.550;2023-03-01T13:36:49;8.30;41.50
10089;DHT22;51898;49.864;8.550;2023-03-01T13:39:53;8.20;41.90
10089;DHT22;51898;49.864;8.550;2023-03-01T13:42:55;8.40;41.40
10089;DHT22;51898;49.864;8.550;2023-03-01T13:46:19;8.40;41.20
10089;DHT22;51898;49.864;8.550;2023-03-01T13:49:26;8.40;41.20
10089;DHT22;51898;49.864;8.550;2023-03-01T13:52:45;8.50;41.40
10089;DHT22;51898;49.864;8.550;2023-03-01T13:55:55;8.50;40.60
10089;DHT22;51898;49.864;8.550;2023-03-01T13:59:04;8.50;40.70
10089;DHT22;51898;49.864;8.550;2023-03-01T14:02:12;8.50;40.80
10089;DHT22;51898;49.864;8.550;2023-03-01T14:05:13;8.60;40.40
10089;DHT22;51898;49.864;8.550;2023-03-01T14:08:23;8.60;40.00
10089;DHT22;51898;49.864;8.550;2023-03-01T14:17:55;8.70;40.20
10089;DHT22;51898;49.864;8.550;2023-03-01T14:21:01;8.80;40.60
10089;DHT22;51898;49.864;8.550;2023-03-01T14:24:20;8.80;40.00
10089;DHT22;51898;49.864;8.550;2023-03-01T14:27:40;8.80;39.90
10089;DHT22;51898;49.864;8.550;2023-03-01T14:30:50;8.60;40.10
10089;DHT22;51898;49.864;8.550;2023-03-01T14:33:55;8.60;40.30
10089;DHT22;51898;49.864;8.550;2023-03-01T14:40:27;8.80;39.80
10089;DHT22;51898;49.864;8.550;2023-03-01T14:43:29;8.70;39.90
10089;DHT22;51898;49.864;8.550;2023-03-01T14:46:34;8.70;40.10
10089;DHT22;51898;49.864;8.550;2023-03-01T14:49:37;8.70;40.30
10089;DHT22;51898;49.864;8.550;2023-03-01T14:52:42;8.60;40.60
10089;DHT22;51898;49.864;8.550;2023-03-01T14:55:50;8.70;40.50
10089;DHT22;51898;49.864;8.550;2023-03-01T14:58:57;8.70;40.40
10089;DHT22;51898;49.864;8.550;2023-03-01T15:02:00;8.70;40.60
10089;DHT22;51898;49.864;8.550;2023-03-01T15:05:03;8.60;40.80
10089;DHT22;51898;49.864;8.550;2023-03-01T15:08:18;8.50;41.00
10089;DHT22;51898;49.864;8.550;2023-03-01T15:11:24;8.50;41.10
10089;DHT22;51898;49.864;8.550;2023-03-01T15:14:40;8.50;40.80
10089;DHT22;51898;49.864;8.550;2023-03-01T15:17:52;8.50;40.80
10089;DHT22;51898;49.864;8.550;2023-03-01T15:21:24;8.60;41.10
10089;DHT22;51898;49.864;8.550;2023-03-01T15:24:27;8.60;40.90
10089;DHT22;51898;49.864;8.550;2023-03-01T15:27:30;8.70;41.00
10089;DHT22;51898;49.864;8.550;2023-03-01T15:30:35;8.70;41.30
10089;DHT22;51898;49.864;8.550;2023-03-01T15:33:39;8.60;41.40
10089;DHT22;51898;49.864;8.550;2023-03-01T15:36:46;8.60;41.50
10089;DHT22;51898;49.864;8.550;2023-03-01T15:39:55;8.60;41.60
10089;DHT22;51898;49.864;8.550;2023-03-01T15:42:59;8.50;41.40
10089;DHT22;51898;49.864;8.550;2023-03-01T15:46:01;8.50;41.70
10089;DHT22;51898;49.864;8.550;2023-03-01T15:49:24;8.40;41.90
10089;DHT22;51898;49.864;8.550;2023-03-01T15:52:40;8.40;41.80
10089;DHT22;51898;49.864;8.550;2023-03-01T15:55:42;8.40;41.50
10089;DHT22;51898;49.864;8.550;2023-03-01T15:58:48;8.40;41.80
10089;DHT22;51898;49.864;8.550;2023-03-01T16:01:49;8.40;42.10
10089;DHT22;51898;49.864;8.550;2023-03-01T16:04:51;8.40;42.50
10089;DHT22;51898;49.864;8.550;2023-03-01T16:07:55;8.30;42.50
10089;DHT22;51898;49.864;8.550;2023-03-01T16:10:56;8.20;42.60
10089;DHT22;51898;49.864;8.550;2023-03-01T16:13:58;8.20;42.80
10089;DHT22;51898;49.864;8.550;2023-03-01T16:17:00;8.10;42.80
10089;DHT22;51898;49.864;8.550;2023-03-01T16:20:01;8.10;43.10
10089;DHT22;51898;49.864;8.550;2023-03-01T16:23:09;8.00;43.40
10089;DHT22;51898;49.864;8.550;2023-03-01T16:26:12;7.90;43.40
10089;DHT22;51898;49.864;8.550;2023-03-01T16:29:14;7.80;43.60
10089;DHT22;51898;49.864;8.550;2023-03-01T16:32:17;7.70;43.90
10089;DHT22;51898;49.864;8.550;2023-03-01T16:35:21;7.70;44.40
10089;DHT22;51898;49.864;8.550;2023-03-01T16:38:23;7.60;44.40
10089;DHT22;51898;49.864;8.550;2023-03-01T16:41:24;7.50;44.70
10089;DHT22;51898;49.864;8.550;2023-03-01T16:44:26;7.40;45.10
10089;DHT22;51898;49.864;8.550;2023-03-01T16:47:28;7.30;45.40
10089;DHT22;51898;49.864;8.550;2023-03-01T16:50:30;7.30;45.50
10089;DHT22;51898;49.864;8.550;2023-03-01T16:53:32;7.20;46.00
10089;DHT22;51898;49.864;8.550;2023-03-01T16:56:35;7.10;46.10
10089;DHT22;51898;49.864;8.550;2023-03-01T16:59:39;7.00;46.30
10089;DHT22;51898;49.864;8.550;2023-03-01T17:02:41;6.90;46.70
10089;DHT22;51898;49.864;8.550;2023-03-01T17:05:43;6.80;47.10
10089;DHT22;51898;49.864;8.550;2023-03-01T17:08:45;6.70;47.50
10089;DHT22;51898;49.864;8.550;2023-03-01T17:11:46;6.60;47.70
10089;DHT22;51898;49.864;8.550;2023-03-01T17:14:48;6.40;47.90
10089;DHT22;51898;49.864;8.550;2023-03-01T17:17:51;6.40;48.20
10089;DHT22;51898;49.864;8.550;2023-03-01T17:20:53;6.30;48.60
10089;DHT22;51898;49.864;8.550;2023-03-01T17:23:56;6.20;48.80
10089;DHT22;51898;49.864;8.550;2023-03-01T17:26:58;6.10;49.10
10089;DHT22;51898;49.864;8.550;2023-03-01T17:29:59;6.00;49.50
10089;DHT22;51898;49.864;8.550;2023-03-01T17:33:01;5.90;49.70
10089;DHT22;51898;49.864;8.550;2023-03-01T17:36:04;5.90;49.90
10089;DHT22;51898;49.864;8.550;2023-03-01T17:39:06;5.80;50.50
10089;DHT22;51898;49.864;8.550;2023-03-01T17:42:07;5.70;50.60
10089;DHT22;51898;49.864;8.550;2023-03-01T17:45:09;5.60;50.80
10089;DHT22;51898;49.864;8.550;2023-03-01T17:48:11;5.50;51.00
10089;DHT22;51898;49.864;8.550;2023-03-01T17:51:13;5.50;51.30
10089;DHT22;51898;49.864;8.550;2023-03-01T17:54:15;5.40;51.40
10089;DHT22;51898;49.864;8.550;2023-03-01T17:57:16;5.30;51.60
10089;DHT22;51898;49.864;8.550;2023-03-01T18:00:18;5.20;52.00
10089;DHT22;51898;49.864;8.550;2023-03-01T18:03:20;5.20;52.20
10089;DHT22;51898;49.864;8.550;2023-03-01T18:06:25;5.10;52.40
10089;DHT22;51898;49.864;8.550;2023-03-01T18:09:27;5.00;52.40
10089;DHT22;51898;49.864;8.550;2023-03-01T18:12:30;5.00;52.50
10089;DHT22;51898;49.864;8.550;2023-03-01T18:15:33;4.90;52.80
10089;DHT22;51898;49.864;8.550;2023-03-01T18:18:35;4.90;53.10
10089;DHT22;51898;49.864;8.550;2023-03-01T18:21:37;4.80;53.10
10089;DHT22;51898;49.864;8.550;2023-03-01T18:24:39;4.80;53.40
10089;DHT22;51898;49.864;8.550;2023-03-01T18:27:41;4.70;53.70
10089;DHT22;51898;49.864;8.550;2023-03-01T18:30:43;4.60;54.00
10089;DHT22;51898;49.864;8.550;2023-03-01T18:33:45;4.60;53.90
10089;DHT22;51898;49.864;8.550;2023-03-01T18:36:47;4.50;54.20
10089;DHT22;51898;49.864;8.550;2023-03-01T18:40:09;4.50;54.20
10089;DHT22;51898;49.864;8.550;2023-03-01T18:43:13;4.50;54.20
10089;DHT22;51898;49.864;8.550;2023-03-01T18:46:15;4.40;54.30
10089;DHT22;51898;49.864;8.550;2023-03-01T18:49:18;4.40;54.40
10089;DHT22;51898;49.864;8.550;2023-03-01T18:52:19;4.30;54.40
10089;DHT22;51898;49.864;8.550;2023-03-01T18:55:21;4.30;54.40
10089;DHT22;51898;49.864;8.550;2023-03-01T18:58:23;4.30;54.50
10089;DHT22;51898;49.864;8.550;2023-03-01T19:01:26;4.30;54.50
10089;DHT22;51898;49.864;8.550;2023-03-01T19:04:28;4.20;54.70
10089;DHT22;51898;49.864;8.550;2023-03-01T19:07:30;4.10;54.70
10089;DHT22;51898;49.864;8.550;2023-03-01T19:10:32;4.10;55.10
10089;DHT22;51898;49.864;8.550;2023-03-01T19:13:35;4.10;55.00
10089;DHT22;51898;49.864;8.550;2023-03-01T19:16:37;4.00;55.10
10089;DHT22;51898;49.864;8.550;2023-03-01T19:19:39;3.90;55.30
10089;DHT22;51898;49.864;8.550;2023-03-01T19:22:41;3.90;55.30
10089;DHT22;51898;49.864;8.550;2023-03-01T19:25:43;3.80;55.20
10089;DHT22;51898;49.864;8.550;2023-03-01T19:28:45;3.70;55.30
10089;DHT22;51898;49.864;8.550;2023-03-01T19:31:47;3.70;55.70
10089;DHT22;51898;49.864;8.550;2023-03-01T19:34:49;3.70;55.50
10089;DHT22;51898;49.864;8.550;2023-03-01T19:37:52;3.70;55.40
10089;DHT22;51898;49.864;8.550;2023-03-01T19:40:54;3.60;55.40
10089;DHT22;51898;49.864;8.550;2023-03-01T19:43:56;3.60;55.40
10089;DHT22;51898;49.864;8.550;2023-03-01T19:46:58;3.60;55.50
10089;DHT22;51898;49.864;8.550;2023-03-01T19:50:00;3.50;55.60
10089;DHT22;51898;49.864;8.550;2023-03-01T19:53:02;3.50;55.60
10089;DHT22;51898;49.864;8.550;2023-03-01T19:56:03;3.40;55.70
10089;DHT22;51898;49.864;8.550;2023-03-01T19:59:05;3.40;55.80
10089;DHT22;51898;49.864;8.550;2023-03-01T20:02:08;3.40;56.00
10089;DHT22;51898;49.864;8.550;2023-03-01T20:05:10;3.40;56.00
10089;DHT22;51898;49.864;8.550;2023-03-01T20:08:12;3.30;56.20
10089;DHT22;51898;49.864;8.550;2023-03-01T20:11:15;3.30;56.20
10089;DHT22;51898;49.864;8.550;2023-03-01T20:14:18;3.30;56.40
10089;DHT22;51898;49.864;8.550;2023-03-01T20:17:23;3.20;56.30
10089;DHT22;51898;49.864;8.550;2023-03-01T20:20:26;3.20;56.40
10089;DHT22;51898;49.864;8.550;2023-03-01T20:23:28;3.20;56.60
10089;DHT22;51898;49.864;8.550;2023-03-01T20:26:30;3.20;56.80
10089;DHT22;51898;49.864;8.550;2023-03-01T20:29:33;3.10;56.90
10089;DHT22;51898;49.864;8.550;2023-03-01T20:32:35;3.10;57.10
10089;DHT22;51898;49.864;8.550;2023-03-01T20:35:41;3.10;57.20
10089;DHT22;51898;49.864;8.550;2023-03-01T20:38:43;3.00;57.40
10089;DHT22;51898;49.864;8.550;2023-03-01T20:41:44;2.90;57.60
10089;DHT22;51898;49.864;8.550;2023-03-01T20:44:46;2.90;57.90
10089;DHT22;51898;49.864;8.550;2023-03-01T20:47:48;2.90;58.10
10089;DHT22;51898;49.864;8.550;2023-03-01T20:50:52;2.80;58.30
10089;DHT22;51898;49.864;8.550;2023-03-01T20:53:54;2.80;58.50
10089;DHT22;51898;49.864;8.550;2023-03-01T20:56:56;2.70;58.70